Terminal Aerodrome Forecast
Issued by NWS Wilmington, NC

Home | Current Version | Previous Version | Text Only | Print | Product List | Glossary On
Versions: 1 2 3 4 5 6 7 8 9 10 11 12 13 14 15 16 17 18 19 20 21
000
FTUS42 KILM 231123
TAFILM
TAF
KILM 231123Z 2312/2412 25009KT P6SM FEW050 SCT060
     FM231400 21008KT P6SM SCT035
     FM232200 20010KT P6SM VCTS SCT035CB
     FM240400 22009KT 5SM -SHRA VCTS BKN040CB=

USA.gov is the U.S. government's official web portal to all federal, state and local government web resources and services.